メインページ
METAR-TAF:

METAR-TAF

空港 :

ブジュンブラ国際空港

ブジュンブラ, ブルンジ

緯度: 03-19S, 経度: 029-19E, 海抜: 782m

現時点の気象観測

当レポートは4時間43分前の18:00(UTC)に作成
の風 5kt
気温
気圧 1013 hPa
視程10km以上
高度2000ftの雲はほとんどない

METAR: HBBA 111800Z 08005KT 9999 FEW020 SCT10023/21 Q1013

時間: 00:43 (22:43 UTC)

予報

当レポートは5時間43分前の17:00(UTC)に作成
予報は11日の 18時(UTC)から 12日の 24時(UTC)まで有効
の風 4kt
視程10km以上
高度2700ftの雲はほとんどない
高度10000ftの千切れ雲あり
12日の 10時(UTC)から 12日の 16時(UTC)まで一時的に
東/南東の風 10kt、最大22ktの突風を伴う
視程10km以上
高度2300ftの雲はほとんどない, 積乱雲.
高度9000ftの千切れ雲あり
激しい雷雨, 雨, にわか雨
12日の 21時(UTC)から 12日の 23時(UTC)まで徐々に
変向風 4kt
視程10km以上
高度2500ftの雲はほとんどない
高度10000ftの千切れ雲あり

TAF: HBBA 111700Z 1118/1224 36004KT 9999 FEW027 BKN100 TEMPO 1210/1216 12010G22KT 9999 TSRA OR SHRA FEW023CB BKN090 BECMG 1221/1223 VRB04KT 9999 FEW025 BKN100

4,000以上の空港の気象観測と天気予報(METAR報とTAF報)

利用可能な観測所は地図上に黄色い丸と赤い丸で示す。

丸の上にカーソルを重ねると観測所名を参照できる。

次にクリックすると気象観測と天気予報を参照できる。

マップの切り替え:黒色「×」印の緑ボタンをクリックして拡大、「-」印の緑ボタンをクリックして縮小、緑色の三角印をクリックして隣りの地図に切り替え


METAR-TAF: